createdAt,value
2024-05-09T00:00:22.315Z,16.0095
2024-05-09T00:01:18.970Z,16.0095
2024-05-09T00:02:21.490Z,16.0060
2024-05-09T00:03:24.061Z,15.9760
2024-05-09T00:04:26.635Z,15.9721
2024-05-09T00:05:29.365Z,15.9847
2024-05-09T00:06:31.867Z,16.0003
2024-05-09T00:07:34.368Z,15.9921
2024-05-09T00:08:37.219Z,15.9910
2024-05-09T00:09:39.522Z,15.9826
2024-05-09T00:10:42.206Z,15.9849
2024-05-09T00:11:44.733Z,15.9637
2024-05-09T00:12:47.317Z,15.9362
2024-05-09T00:13:49.872Z,15.9456
2024-05-09T00:14:52.634Z,15.9516
2024-05-09T00:15:55.010Z,15.9660
2024-05-09T00:16:57.649Z,15.9795
2024-05-09T00:18:00.402Z,15.9643
2024-05-09T00:19:02.857Z,15.9713
2024-05-09T00:20:14.245Z,15.9904
2024-05-09T00:21:07.978Z,16.0046
2024-05-09T00:22:10.522Z,16.0079
2024-05-09T00:23:13.723Z,16.0011
2024-05-09T00:24:15.685Z,15.9929
2024-05-09T00:25:18.296Z,15.9935
2024-05-09T00:26:20.911Z,15.9842
2024-05-09T00:27:23.466Z,15.9686
2024-05-09T00:28:26.048Z,15.9740
2024-05-09T00:29:28.710Z,15.9898
2024-05-09T00:30:34.979Z,15.9908
2024-05-09T00:31:33.767Z,15.9824
2024-05-09T00:32:36.605Z,15.9826
2024-05-09T00:33:39.139Z,15.9801
2024-05-09T00:34:41.512Z,15.9715
2024-05-09T00:35:44.101Z,15.9709
2024-05-09T00:36:46.679Z,15.9795
2024-05-09T00:37:49.254Z,15.9812
2024-05-09T00:38:51.815Z,15.9824
2024-05-09T00:39:54.415Z,15.9639
2024-05-09T00:40:57.038Z,15.9682
2024-05-09T00:41:59.583Z,15.9680
2024-05-09T00:43:02.148Z,15.9557
2024-05-09T00:44:04.769Z,15.9547
2024-05-09T00:45:07.306Z,15.9501
2024-05-09T00:46:09.923Z,15.9483
2024-05-09T00:47:12.555Z,15.9440
2024-05-09T00:48:17.721Z,15.9497
2024-05-09T00:49:17.794Z,15.9222
2024-05-09T00:50:29.354Z,15.9154
2024-05-09T00:51:22.866Z,15.9050
2024-05-09T00:52:25.406Z,15.8994
2024-05-09T00:53:28.055Z,15.9013
2024-05-09T00:54:30.551Z,15.9214
2024-05-09T00:55:33.171Z,15.9255
2024-05-09T00:56:35.807Z,15.9475
2024-05-09T00:57:38.300Z,15.9405
2024-05-09T00:58:40.894Z,15.9409
2024-05-09T00:59:43.466Z,15.9516
2024-05-09T01:00:46.162Z,15.9610
2024-05-09T01:01:48.774Z,15.9378
2024-05-09T01:02:51.304Z,15.9430
2024-05-09T01:03:54.054Z,15.9499
2024-05-09T01:04:56.463Z,15.9501
2024-05-09T01:05:59.074Z,15.9247
2024-05-09T01:07:01.600Z,15.9323
2024-05-09T01:08:04.212Z,15.9637
2024-05-09T01:09:06.748Z,15.9616
2024-05-09T01:10:14.039Z,15.9805
2024-05-09T01:11:11.966Z,15.9508
2024-05-09T01:12:14.680Z,15.9666
2024-05-09T01:13:17.127Z,15.9898
2024-05-09T01:14:19.690Z,15.9793
2024-05-09T01:15:22.207Z,15.9608
2024-05-09T01:16:24.799Z,15.9773
2024-05-09T01:17:27.512Z,15.9656
2024-05-09T01:18:30.089Z,15.9553
2024-05-09T01:19:32.833Z,15.9734
2024-05-09T01:20:41.514Z,15.9676
2024-05-09T01:21:37.717Z,15.9697
2024-05-09T01:22:40.300Z,15.9690
2024-05-09T01:23:42.977Z,15.9619
2024-05-09T01:24:45.452Z,15.9545
2024-05-09T01:25:48.090Z,15.9616
2024-05-09T01:26:50.621Z,15.9571
2024-05-09T01:27:53.207Z,15.9582
2024-05-09T01:28:55.830Z,15.9485
2024-05-09T01:29:58.368Z,15.9744
2024-05-09T01:31:01.007Z,15.9785
2024-05-09T01:32:03.637Z,15.9890
2024-05-09T01:33:07.967Z,15.9966
2024-05-09T01:34:08.806Z,15.9853
2024-05-09T01:35:11.391Z,15.9830
2024-05-09T01:36:13.946Z,15.9859
2024-05-09T01:37:16.559Z,15.9863
2024-05-09T01:38:19.136Z,15.9910
2024-05-09T01:39:21.705Z,15.9898
2024-05-09T01:40:33.489Z,15.9914
2024-05-09T01:41:26.946Z,15.9869
2024-05-09T01:42:29.453Z,15.9824
2024-05-09T01:43:32.051Z,15.9822
2024-05-09T01:44:34.692Z,15.9779
2024-05-09T01:45:37.207Z,15.9828
2024-05-09T01:46:39.821Z,15.9801
2024-05-09T01:47:42.693Z,15.9847
2024-05-09T01:48:45.028Z,15.9849
2024-05-09T01:49:47.637Z,15.9805
2024-05-09T01:50:50.156Z,15.9867
2024-05-09T01:51:52.716Z,15.9838
2024-05-09T01:52:55.338Z,15.9742
2024-05-09T01:53:57.905Z,15.9818
2024-05-09T01:55:03.524Z,15.9918
2024-05-09T01:56:03.166Z,15.9810
2024-05-09T01:57:05.704Z,15.9764
2024-05-09T01:58:08.210Z,15.9604
2024-05-09T01:59:10.857Z,15.9417
2024-05-09T02:00:18.798Z,15.9549
2024-05-09T02:01:16.027Z,15.9799
2024-05-09T02:02:18.701Z,15.9890
2024-05-09T02:03:21.472Z,15.9766
2024-05-09T02:04:23.941Z,15.9769
2024-05-09T02:05:26.353Z,15.9771
2024-05-09T02:06:28.908Z,15.9845
2024-05-09T02:07:31.497Z,15.9732
2024-05-09T02:08:34.222Z,15.9481
2024-05-09T02:09:36.694Z,15.9487
2024-05-09T02:10:39.270Z,15.9448
2024-05-09T02:11:41.951Z,15.9604
2024-05-09T02:12:44.423Z,15.9760
2024-05-09T02:13:47.017Z,15.9906
2024-05-09T02:14:49.714Z,15.9999
2024-05-09T02:15:52.262Z,16.0107
2024-05-09T02:16:54.831Z,16.0122
2024-05-09T02:17:57.479Z,15.9925
2024-05-09T02:19:00.013Z,15.9900
2024-05-09T02:20:02.765Z,15.9721
2024-05-09T02:21:05.256Z,15.9787
2024-05-09T02:22:07.681Z,15.9799
2024-05-09T02:23:10.368Z,15.9721
2024-05-09T02:24:12.861Z,15.9873
2024-05-09T02:25:15.557Z,15.9789
2024-05-09T02:26:18.132Z,15.9775
2024-05-09T02:27:20.631Z,15.9832
2024-05-09T02:28:23.301Z,15.9818
2024-05-09T02:29:25.916Z,15.9838
2024-05-09T02:30:36.373Z,15.9816
2024-05-09T02:31:30.958Z,15.9912
2024-05-09T02:32:33.696Z,15.9785
2024-05-09T02:33:36.479Z,15.9814
2024-05-09T02:34:38.848Z,15.9927
2024-05-09T02:35:41.455Z,15.9888
2024-05-09T02:36:43.873Z,15.9910
2024-05-09T02:37:46.664Z,15.9941
2024-05-09T02:38:49.043Z,15.9962
2024-05-09T02:39:51.625Z,15.9867
2024-05-09T02:40:54.234Z,15.9816
2024-05-09T02:41:56.793Z,15.9791
2024-05-09T02:42:59.438Z,15.9779
2024-05-09T02:44:02.021Z,15.9672
2024-05-09T02:45:04.536Z,15.9639
2024-05-09T02:46:07.161Z,15.9744
2024-05-09T02:47:09.843Z,15.9623
2024-05-09T02:48:13.379Z,15.9676
2024-05-09T02:49:14.925Z,15.9723
2024-05-09T02:50:25.998Z,15.9773
2024-05-09T02:51:20.104Z,15.9656
2024-05-09T02:52:22.620Z,15.9748
2024-05-09T02:53:25.270Z,15.9723
2024-05-09T02:54:27.819Z,15.9814
2024-05-09T02:55:30.382Z,15.9808
2024-05-09T02:56:33.027Z,15.9732
2024-05-09T02:57:35.534Z,15.9750
2024-05-09T02:58:38.164Z,15.9838
2024-05-09T02:59:40.720Z,15.9822
2024-05-09T03:00:43.434Z,15.9933
2024-05-09T03:01:46.064Z,15.9951
2024-05-09T03:02:48.619Z,15.9960
2024-05-09T03:03:51.180Z,15.9927
2024-05-09T03:04:53.764Z,15.9873
2024-05-09T03:05:56.387Z,15.9873
2024-05-09T03:06:58.843Z,15.9867
2024-05-09T03:08:01.532Z,15.9865
2024-05-09T03:09:04.000Z,15.9799
2024-05-09T03:10:12.218Z,15.9600
2024-05-09T03:11:09.248Z,15.9341
2024-05-09T03:12:12.015Z,15.9549
2024-05-09T03:13:15.606Z,15.9584
2024-05-09T03:14:17.013Z,15.9501
2024-05-09T03:15:19.478Z,15.9477
2024-05-09T03:16:22.047Z,15.9491
2024-05-09T03:17:24.921Z,15.9489
2024-05-09T03:18:27.380Z,15.9487
2024-05-09T03:19:29.886Z,15.9580
2024-05-09T03:20:34.757Z,15.9703
2024-05-09T03:21:34.994Z,15.9884
2024-05-09T03:22:37.555Z,15.9783
2024-05-09T03:23:40.232Z,15.9709
2024-05-09T03:24:42.728Z,15.9857
2024-05-09T03:25:45.394Z,15.9742
2024-05-09T03:26:47.902Z,15.9791
2024-05-09T03:27:50.484Z,15.9756
2024-05-09T03:28:53.136Z,15.9742
2024-05-09T03:29:55.657Z,15.9742
2024-05-09T03:30:58.234Z,15.9925
2024-05-09T03:32:00.954Z,15.9838
2024-05-09T03:33:03.625Z,15.9836
2024-05-09T03:34:06.183Z,15.9855
2024-05-09T03:35:08.625Z,15.9884
2024-05-09T03:36:11.537Z,15.9912
2024-05-09T03:37:13.784Z,15.9808
2024-05-09T03:38:16.572Z,15.9773
2024-05-09T03:39:18.927Z,15.9849
2024-05-09T03:40:26.358Z,15.9838
2024-05-09T03:41:24.159Z,15.9867
2024-05-09T03:42:26.685Z,15.9851
2024-05-09T03:43:29.253Z,15.9853
2024-05-09T03:44:31.928Z,15.9873
2024-05-09T03:45:34.452Z,15.9902
2024-05-09T03:46:37.034Z,15.9771
2024-05-09T03:47:39.782Z,15.9779
2024-05-09T03:48:42.308Z,15.9559
2024-05-09T03:49:44.862Z,15.9598
2024-05-09T03:50:47.474Z,15.9680
2024-05-09T03:51:49.939Z,15.9752
2024-05-09T03:52:52.655Z,15.9838
2024-05-09T03:53:55.177Z,15.9947
2024-05-09T03:54:57.736Z,15.9896
2024-05-09T03:56:00.394Z,15.9933
2024-05-09T03:57:02.877Z,15.9941
2024-05-09T03:58:05.455Z,15.9812
2024-05-09T03:59:08.089Z,15.9822
2024-05-09T04:00:17.824Z,15.9738
2024-05-09T04:01:13.252Z,15.9781
2024-05-09T04:02:15.864Z,15.9777
2024-05-09T04:03:18.758Z,15.9740
2024-05-09T04:04:21.090Z,15.9853
2024-05-09T04:05:23.562Z,15.9853
2024-05-09T04:06:26.176Z,15.9775
2024-05-09T04:07:28.773Z,15.9783
2024-05-09T04:08:31.367Z,15.9676
2024-05-09T04:09:33.903Z,15.9616
2024-05-09T04:10:36.472Z,15.9742
2024-05-09T04:11:39.156Z,15.9791
2024-05-09T04:12:41.666Z,15.9888
2024-05-09T04:13:44.261Z,15.9941
2024-05-09T04:14:46.823Z,15.9865
2024-05-09T04:15:49.406Z,16.0056
2024-05-09T04:16:52.076Z,16.0044
2024-05-09T04:17:54.922Z,15.9842
2024-05-09T04:18:57.270Z,15.9906
2024-05-09T04:19:59.787Z,15.9908
2024-05-09T04:21:02.501Z,15.9820
2024-05-09T04:22:04.912Z,15.9736
2024-05-09T04:23:08.603Z,15.9826
2024-05-09T04:24:10.066Z,15.9859
2024-05-09T04:25:12.683Z,15.9668
2024-05-09T04:26:15.266Z,15.9380
2024-05-09T04:27:17.871Z,15.9261
2024-05-09T04:28:20.400Z,15.9179
2024-05-09T04:29:23.041Z,15.9364
2024-05-09T04:30:34.035Z,15.9522
2024-05-09T04:31:28.166Z,15.9446
2024-05-09T04:32:30.954Z,15.9430
2024-05-09T04:33:33.575Z,15.9386
2024-05-09T04:34:36.031Z,15.9703
2024-05-09T04:35:38.913Z,15.9676
2024-05-09T04:36:43.861Z,15.9732
2024-05-09T04:37:43.762Z,15.9723
2024-05-09T04:38:46.310Z,15.9760
2024-05-09T04:39:48.843Z,15.9766
2024-05-09T04:40:51.529Z,15.9912
2024-05-09T04:41:54.018Z,15.9894
2024-05-09T04:42:56.610Z,15.9879
2024-05-09T04:43:59.206Z,15.9884
2024-05-09T04:45:01.764Z,15.9871
2024-05-09T04:46:04.345Z,15.9857
2024-05-09T04:47:06.984Z,15.9881
2024-05-09T04:48:09.806Z,15.9845
2024-05-09T04:49:12.214Z,15.9931
2024-05-09T04:50:20.987Z,15.9836
2024-05-09T04:51:17.323Z,15.9838
2024-05-09T04:52:19.889Z,16.0033
2024-05-09T04:53:22.512Z,16.0128
2024-05-09T04:54:33.809Z,16.0081
2024-05-09T04:55:27.677Z,16.0118
2024-05-09T04:56:30.234Z,16.0038
2024-05-09T04:57:32.785Z,15.9957
2024-05-09T04:58:35.371Z,15.9916
2024-05-09T04:59:38.018Z,15.9994
2024-05-09T05:00:41.326Z,15.9927
2024-05-09T05:01:43.118Z,15.9888
2024-05-09T05:02:45.784Z,15.9886
2024-05-09T05:03:48.420Z,15.9986
2024-05-09T05:04:51.021Z,15.9990
2024-05-09T05:05:53.512Z,16.0085
2024-05-09T05:06:57.779Z,16.0231
2024-05-09T05:07:58.695Z,16.0198
2024-05-09T05:09:01.245Z,16.0259
2024-05-09T05:10:05.749Z,16.0358
2024-05-09T05:11:06.447Z,16.0391
2024-05-09T05:12:09.165Z,16.0233
2024-05-09T05:13:11.577Z,15.9869
2024-05-09T05:14:14.180Z,15.9886
2024-05-09T05:15:16.732Z,15.9994
2024-05-09T05:16:19.322Z,16.0167
2024-05-09T05:17:22.010Z,16.0153
2024-05-09T05:18:24.650Z,16.0151
2024-05-09T05:19:27.299Z,16.0237
2024-05-09T05:20:33.593Z,16.0188
2024-05-09T05:21:32.334Z,16.0005
2024-05-09T05:22:34.870Z,15.9999
2024-05-09T05:23:37.505Z,16.0264
2024-05-09T05:24:39.991Z,16.0294
2024-05-09T05:25:42.585Z,16.0274
2024-05-09T05:26:45.193Z,16.0163
2024-05-09T05:27:47.743Z,16.0153
2024-05-09T05:28:50.377Z,16.0083
2024-05-09T05:29:52.941Z,16.0091
2024-05-09T05:30:55.522Z,16.0009
2024-05-09T05:31:58.210Z,16.0264
2024-05-09T05:33:01.001Z,16.0183
2024-05-09T05:34:03.355Z,16.0383
2024-05-09T05:35:05.913Z,16.0432
2024-05-09T05:36:08.466Z,16.0393
2024-05-09T05:37:11.008Z,16.0270
2024-05-09T05:38:13.657Z,16.0112
2024-05-09T05:39:16.249Z,15.9908
2024-05-09T05:40:28.014Z,16.0044
2024-05-09T05:41:21.432Z,15.9945
2024-05-09T05:42:24.004Z,15.9849
2024-05-09T05:43:26.591Z,15.9884
2024-05-09T05:44:29.306Z,15.9943
2024-05-09T05:45:31.757Z,16.0027
2024-05-09T05:46:34.359Z,16.0093
2024-05-09T05:47:37.043Z,16.0311
2024-05-09T05:48:39.795Z,16.0440
2024-05-09T05:49:42.139Z,16.0333
2024-05-09T05:50:44.779Z,16.0272
2024-05-09T05:51:47.314Z,16.0247
2024-05-09T05:52:49.882Z,16.0362
2024-05-09T05:53:52.459Z,16.0352
2024-05-09T05:54:55.048Z,16.0231
2024-05-09T05:55:57.682Z,16.0214
2024-05-09T05:57:00.216Z,16.0171
2024-05-09T05:58:02.875Z,16.0311
2024-05-09T05:59:05.417Z,16.0498
2024-05-09T06:00:09.782Z,16.0549
2024-05-09T06:01:10.562Z,16.0393
2024-05-09T06:02:13.230Z,16.0303
2024-05-09T06:03:15.838Z,16.0309
2024-05-09T06:04:18.455Z,16.0364
2024-05-09T06:05:20.898Z,16.0432
2024-05-09T06:06:23.469Z,16.0438
2024-05-09T06:07:26.031Z,16.0496
2024-05-09T06:08:30.532Z,16.0438
2024-05-09T06:09:31.276Z,16.0280
2024-05-09T06:10:38.868Z,16.0251
2024-05-09T06:11:36.434Z,16.0354
2024-05-09T06:12:38.969Z,16.0420
2024-05-09T06:13:41.537Z,16.0329
2024-05-09T06:14:44.123Z,16.0126
2024-05-09T06:15:46.720Z,16.0128
2024-05-09T06:16:49.337Z,16.0120
2024-05-09T06:17:51.999Z,16.0368
2024-05-09T06:18:54.688Z,16.0348
2024-05-09T06:19:57.074Z,16.0477
2024-05-09T06:20:59.679Z,16.0475
2024-05-09T06:22:02.218Z,16.0352
2024-05-09T06:23:05.062Z,16.0327
2024-05-09T06:24:07.384Z,16.0190
2024-05-09T06:25:09.983Z,16.0249
2024-05-09T06:26:12.583Z,16.0305
2024-05-09T06:27:15.146Z,16.0286
2024-05-09T06:28:17.710Z,16.0381
2024-05-09T06:29:20.341Z,16.0508
2024-05-09T06:30:30.277Z,16.0387
2024-05-09T06:31:25.476Z,16.0674
2024-05-09T06:32:28.237Z,16.0798
2024-05-09T06:33:30.853Z,16.0917
2024-05-09T06:34:33.387Z,16.1118
2024-05-09T06:35:36.114Z,16.1071
2024-05-09T06:36:38.514Z,16.0962
2024-05-09T06:37:40.968Z,16.0945
2024-05-09T06:38:43.566Z,16.0923
2024-05-09T06:39:46.136Z,16.1034
2024-05-09T06:40:48.783Z,16.1065
2024-05-09T06:41:51.317Z,16.1087
2024-05-09T06:42:53.881Z,16.1182
2024-05-09T06:43:56.513Z,16.1104
2024-05-09T06:44:59.072Z,16.1061
2024-05-09T06:46:01.663Z,16.1058
2024-05-09T06:47:04.324Z,16.1097
2024-05-09T06:48:07.080Z,16.1042
2024-05-09T06:49:09.560Z,16.0919
2024-05-09T06:50:20.217Z,16.0980
2024-05-09T06:51:14.729Z,16.1093
2024-05-09T06:52:17.157Z,16.1204
2024-05-09T06:53:19.755Z,16.1147
2024-05-09T06:54:22.331Z,16.1134
2024-05-09T06:55:24.891Z,16.1171
2024-05-09T06:56:27.518Z,16.1215
2024-05-09T06:57:30.075Z,16.1245
2024-05-09T06:58:32.649Z,16.1303
2024-05-09T06:59:35.380Z,16.1387
2024-05-09T07:00:40.340Z,16.1252
2024-05-09T07:01:40.483Z,16.1171
2024-05-09T07:02:43.116Z,16.1256
2024-05-09T07:03:45.733Z,16.1395
2024-05-09T07:04:48.244Z,16.1375
2024-05-09T07:05:50.757Z,16.1286
2024-05-09T07:06:53.370Z,16.1247
2024-05-09T07:07:55.916Z,16.1352
2024-05-09T07:08:58.527Z,16.1453
2024-05-09T07:10:01.086Z,16.1449
2024-05-09T07:11:03.809Z,16.1510
2024-05-09T07:12:06.373Z,16.1537
2024-05-09T07:13:08.823Z,16.1533
2024-05-09T07:14:11.495Z,16.1512
2024-05-09T07:15:13.984Z,16.1521
2024-05-09T07:16:16.625Z,16.1562
2024-05-09T07:17:19.269Z,16.1572
2024-05-09T07:18:21.941Z,16.1492
2024-05-09T07:19:24.576Z,16.1562
2024-05-09T07:20:34.085Z,16.1547
2024-05-09T07:21:29.485Z,16.1671
2024-05-09T07:22:32.064Z,16.1623
2024-05-09T07:23:34.815Z,16.1588
2024-05-09T07:24:37.240Z,16.1654
2024-05-09T07:25:39.832Z,16.1642
2024-05-09T07:26:42.463Z,16.1796
2024-05-09T07:27:44.972Z,16.1847
2024-05-09T07:28:47.618Z,16.1767
2024-05-09T07:29:50.134Z,16.1839
2024-05-09T07:30:52.729Z,16.1897
2024-05-09T07:31:55.343Z,16.1839
2024-05-09T07:32:58.115Z,16.1870
2024-05-09T07:34:00.705Z,16.2005
2024-05-09T07:35:03.182Z,16.1997
2024-05-09T07:36:05.657Z,16.1968
2024-05-09T07:37:08.262Z,16.2030
2024-05-09T07:38:10.862Z,16.1897
2024-05-09T07:39:13.367Z,16.1833
2024-05-09T07:40:24.882Z,16.1714
2024-05-09T07:41:18.594Z,16.1732
2024-05-09T07:42:21.126Z,16.1892
2024-05-09T07:43:23.743Z,16.1960
2024-05-09T07:44:26.285Z,16.1929
2024-05-09T07:45:45.219Z,16.2036
2024-05-09T07:47:37.114Z,16.2110
2024-05-09T07:50:34.437Z,16.1979
2024-05-09T07:53:14.438Z,16.1855
2024-05-09T07:53:34.619Z,16.1847
2024-05-09T07:53:52.382Z,16.1956
2024-05-09T07:54:52.293Z,16.2001
2024-05-09T07:55:55.248Z,16.1964
2024-05-09T07:56:57.564Z,16.1993
2024-05-09T07:57:59.914Z,16.2088
2024-05-09T07:59:02.457Z,16.2007
2024-05-09T08:00:06.655Z,16.2104
2024-05-09T08:01:07.715Z,16.2022
2024-05-09T08:02:10.374Z,16.2061
2024-05-09T08:03:12.859Z,16.2028
2024-05-09T08:04:15.469Z,16.1960
2024-05-09T08:05:18.102Z,16.1991
2024-05-09T08:06:20.538Z,16.2036
2024-05-09T08:07:23.192Z,16.2102
2024-05-09T08:08:25.722Z,16.2055
2024-05-09T08:09:28.339Z,16.2090
2024-05-09T08:10:30.960Z,16.2194
2024-05-09T08:11:33.504Z,16.2188
2024-05-09T08:12:36.099Z,16.2057
2024-05-09T08:13:38.725Z,16.1839
2024-05-09T08:14:41.213Z,16.1997
2024-05-09T08:15:43.896Z,16.1747
2024-05-09T08:16:46.390Z,16.0740
2024-05-09T08:17:49.063Z,16.1521
2024-05-09T08:18:51.671Z,16.2527
2024-05-09T08:19:54.136Z,16.3059
2024-05-09T08:20:56.719Z,16.3476
2024-05-09T08:21:59.341Z,16.3776
2024-05-09T08:23:01.887Z,16.3836
2024-05-09T08:24:04.485Z,16.4513
2024-05-09T08:25:07.076Z,16.4692
2024-05-09T08:26:09.639Z,16.4809
2024-05-09T08:27:12.242Z,16.5027
2024-05-09T08:28:14.852Z,16.5376
2024-05-09T08:29:17.407Z,16.5460
2024-05-09T08:30:25.304Z,16.5783
2024-05-09T08:31:22.792Z,16.6126
2024-05-09T08:32:25.185Z,16.5906
2024-05-09T08:33:27.835Z,16.5996
2024-05-09T08:34:30.358Z,16.6144
2024-05-09T08:35:32.934Z,16.6229
2024-05-09T08:36:35.513Z,16.6434
2024-05-09T08:37:40.483Z,16.6422
2024-05-09T08:38:40.656Z,16.6212
2024-05-09T08:39:43.258Z,16.6393
2024-05-09T08:40:45.898Z,16.5697
2024-05-09T08:41:48.398Z,16.5604
2024-05-09T08:42:51.003Z,16.5818
2024-05-09T08:43:53.562Z,16.5631
2024-05-09T08:44:56.133Z,16.5236
2024-05-09T08:45:58.766Z,16.5238
2024-05-09T08:47:01.385Z,16.5047
2024-05-09T08:48:04.070Z,16.5089
2024-05-09T08:49:06.642Z,16.5093
2024-05-09T08:50:13.783Z,16.5119
2024-05-09T08:51:11.641Z,16.5158
2024-05-09T08:52:14.229Z,16.4922
2024-05-09T08:53:16.822Z,16.4871
2024-05-09T08:54:19.395Z,16.4990
2024-05-09T08:55:21.994Z,16.4850
2024-05-09T08:56:24.600Z,16.4680
2024-05-09T08:57:27.228Z,16.4692
2024-05-09T08:58:29.721Z,16.4758
2024-05-09T08:59:32.340Z,16.4766
2024-05-09T09:00:37.310Z,16.4762
2024-05-09T09:01:38.136Z,16.4645
2024-05-09T09:02:40.250Z,16.4622
2024-05-09T09:03:42.848Z,16.4491
2024-05-09T09:04:45.295Z,16.4456
2024-05-09T09:05:47.839Z,16.4534
2024-05-09T09:06:51.453Z,16.4655
2024-05-09T09:07:52.975Z,16.4534
2024-05-09T09:08:55.550Z,16.4591
2024-05-09T09:09:58.154Z,16.4657
2024-05-09T09:11:00.761Z,16.4409
2024-05-09T09:12:03.327Z,16.4501
2024-05-09T09:13:05.932Z,16.4495
2024-05-09T09:14:08.484Z,16.4394
2024-05-09T09:15:11.076Z,16.4452
2024-05-09T09:16:13.750Z,16.4345
2024-05-09T09:17:16.338Z,16.4363
2024-05-09T09:18:19.292Z,16.4211
2024-05-09T09:19:21.581Z,16.4257
2024-05-09T09:20:29.402Z,16.4224
2024-05-09T09:21:26.773Z,16.4318
2024-05-09T09:22:29.164Z,16.4357
2024-05-09T09:23:31.880Z,16.4351
2024-05-09T09:24:34.373Z,16.4211
2024-05-09T09:25:36.920Z,16.4025
2024-05-09T09:26:39.503Z,16.4000
2024-05-09T09:27:42.167Z,16.4109
2024-05-09T09:28:44.669Z,16.4025
2024-05-09T09:29:47.293Z,16.4115
2024-05-09T09:30:49.905Z,16.4123
2024-05-09T09:31:52.445Z,16.4068
2024-05-09T09:32:55.123Z,16.4271
2024-05-09T09:33:57.936Z,16.4137
2024-05-09T09:35:00.237Z,16.4226
2024-05-09T09:36:02.753Z,16.4271
2024-05-09T09:37:05.404Z,16.4185
2024-05-09T09:38:07.992Z,16.4236
2024-05-09T09:39:10.560Z,16.4101
2024-05-09T09:40:13.468Z,16.3949
2024-05-09T09:41:15.758Z,16.3920
2024-05-09T09:42:18.265Z,16.4101
2024-05-09T09:43:21.177Z,16.4115
2024-05-09T09:44:23.412Z,16.4224
2024-05-09T09:45:26.053Z,16.4368
2024-05-09T09:46:28.740Z,16.4304
2024-05-09T09:47:31.300Z,16.4324
2024-05-09T09:48:34.080Z,16.4170
2024-05-09T09:49:36.411Z,16.4103
2024-05-09T09:50:38.965Z,16.4029
2024-05-09T09:51:41.608Z,16.4185
2024-05-09T09:52:44.123Z,16.4359
2024-05-09T09:53:46.748Z,16.4522
2024-05-09T09:54:49.381Z,16.4511
2024-05-09T09:55:51.897Z,16.4439
2024-05-09T09:56:54.453Z,16.4435
2024-05-09T09:57:57.112Z,16.4456
2024-05-09T09:58:59.621Z,16.4454
2024-05-09T10:00:03.119Z,16.4429
2024-05-09T10:01:04.986Z,16.4495
2024-05-09T10:02:07.600Z,16.4487
2024-05-09T10:03:10.133Z,16.4429
2024-05-09T10:04:12.692Z,16.4312
2024-05-09T10:05:15.160Z,16.4224
2024-05-09T10:06:17.681Z,16.4166
2024-05-09T10:07:20.354Z,16.4238
2024-05-09T10:08:22.858Z,16.4329
2024-05-09T10:09:25.473Z,16.4248
2024-05-09T10:10:32.317Z,16.4234
2024-05-09T10:11:31.679Z,16.4386
2024-05-09T10:12:33.267Z,16.4353
2024-05-09T10:13:35.863Z,16.4244
2024-05-09T10:14:38.342Z,16.4230
2024-05-09T10:15:40.966Z,16.4269
2024-05-09T10:16:43.528Z,16.4287
2024-05-09T10:17:46.150Z,16.4123
2024-05-09T10:18:48.861Z,16.3979
2024-05-09T10:19:51.389Z,16.3949
2024-05-09T10:20:53.826Z,16.3673
2024-05-09T10:21:56.427Z,16.3965
2024-05-09T10:22:59.055Z,16.4064
2024-05-09T10:24:01.583Z,16.4076
2024-05-09T10:25:05.108Z,16.3938
2024-05-09T10:26:06.748Z,16.3986
2024-05-09T10:27:09.400Z,16.4080
2024-05-09T10:28:12.081Z,16.4144
2024-05-09T10:29:14.517Z,16.4250
2024-05-09T10:30:25.816Z,16.4306
2024-05-09T10:31:19.683Z,16.4189
2024-05-09T10:32:22.363Z,16.4296
2024-05-09T10:33:24.987Z,16.4263
2024-05-09T10:34:27.632Z,16.4199
2024-05-09T10:35:30.023Z,16.4131
2024-05-09T10:36:32.644Z,16.4113
2024-05-09T10:37:35.236Z,16.4152
2024-05-09T10:38:37.748Z,16.4029
2024-05-09T10:39:40.359Z,16.4098
2024-05-09T10:40:42.964Z,16.4035
2024-05-09T10:41:45.493Z,16.4096
2024-05-09T10:42:48.183Z,16.4027
2024-05-09T10:43:50.705Z,16.4064
2024-05-09T10:44:53.338Z,16.4203
2024-05-09T10:45:55.856Z,16.4086
2024-05-09T10:46:58.437Z,16.4203
2024-05-09T10:48:01.163Z,16.4014
2024-05-09T10:49:06.294Z,16.4123
2024-05-09T10:50:12.710Z,16.4177
2024-05-09T10:51:08.744Z,16.4298
2024-05-09T10:52:11.350Z,16.4407
2024-05-09T10:53:13.895Z,16.4259
2024-05-09T10:54:16.509Z,16.4115
2024-05-09T10:55:19.285Z,16.4059
2024-05-09T10:56:21.663Z,16.4062
2024-05-09T10:57:24.230Z,16.4261
2024-05-09T10:58:26.805Z,16.4271
2024-05-09T10:59:29.400Z,16.4296
2024-05-09T11:00:35.863Z,16.4316
2024-05-09T11:01:34.639Z,16.4318
2024-05-09T11:02:37.291Z,16.4359
2024-05-09T11:03:40.127Z,16.4363
2024-05-09T11:04:42.485Z,16.4487
2024-05-09T11:05:45.094Z,16.4310
2024-05-09T11:06:47.532Z,16.4271
2024-05-09T11:07:50.071Z,16.4384
2024-05-09T11:08:52.649Z,16.4355
2024-05-09T11:09:55.301Z,16.4378
2024-05-09T11:10:57.855Z,16.4304
2024-05-09T11:12:00.463Z,16.4269
2024-05-09T11:13:03.048Z,16.4148
2024-05-09T11:14:05.565Z,16.4135
2024-05-09T11:15:08.180Z,16.4082
2024-05-09T11:16:10.801Z,16.4113
2024-05-09T11:17:13.322Z,16.4148
2024-05-09T11:18:16.063Z,16.4059
2024-05-09T11:19:18.673Z,16.4263
2024-05-09T11:20:26.942Z,16.4316
2024-05-09T11:21:23.652Z,16.4312
2024-05-09T11:22:26.289Z,16.4248
2024-05-09T11:23:28.804Z,16.4318
2024-05-09T11:24:31.407Z,16.4154
2024-05-09T11:25:33.975Z,16.4183
2024-05-09T11:26:36.612Z,16.4187
2024-05-09T11:27:39.184Z,16.4246
2024-05-09T11:28:41.734Z,16.4125
2024-05-09T11:29:44.315Z,16.4133
2024-05-09T11:30:46.983Z,16.4016
2024-05-09T11:31:49.668Z,16.4062
2024-05-09T11:32:52.298Z,16.4302
2024-05-09T11:33:54.846Z,16.4398
2024-05-09T11:34:57.244Z,16.4485
2024-05-09T11:35:59.823Z,16.4649
2024-05-09T11:37:02.494Z,16.4602
2024-05-09T11:38:04.995Z,16.4612
2024-05-09T11:39:07.593Z,16.4376
2024-05-09T11:40:16.814Z,16.4197
2024-05-09T11:41:12.774Z,16.4267
2024-05-09T11:42:15.326Z,16.4452
2024-05-09T11:43:18.053Z,16.4499
2024-05-09T11:44:20.523Z,16.4573
2024-05-09T11:45:23.148Z,16.4758
2024-05-09T11:46:25.819Z,16.4667
2024-05-09T11:47:28.289Z,16.4704
2024-05-09T11:48:31.148Z,16.4522
2024-05-09T11:49:33.563Z,16.4368
2024-05-09T11:50:36.444Z,16.4326
2024-05-09T11:51:38.637Z,16.4402
2024-05-09T11:52:41.164Z,16.4435
2024-05-09T11:53:43.762Z,16.4294
2024-05-09T11:54:46.381Z,16.4316
2024-05-09T11:55:48.946Z,16.4390
2024-05-09T11:56:51.604Z,16.4534
2024-05-09T11:57:54.097Z,16.4306
2024-05-09T11:58:56.664Z,16.4152
2024-05-09T11:59:59.249Z,16.4294
2024-05-09T12:01:01.979Z,16.4135
2024-05-09T12:02:04.589Z,16.4177
2024-05-09T12:03:07.099Z,16.4160
2024-05-09T12:04:09.699Z,16.3981
2024-05-09T12:05:12.246Z,16.4051
2024-05-09T12:06:14.769Z,16.4191
2024-05-09T12:07:17.439Z,16.4257
2024-05-09T12:08:19.934Z,16.4162
2024-05-09T12:09:22.494Z,16.4041
2024-05-09T12:10:32.125Z,16.4199
2024-05-09T12:11:27.703Z,16.4154
2024-05-09T12:12:30.302Z,16.3967
2024-05-09T12:13:32.957Z,16.3745
2024-05-09T12:14:35.447Z,16.3899
2024-05-09T12:15:38.879Z,16.3983
2024-05-09T12:16:40.653Z,16.4094
2024-05-09T12:17:43.288Z,16.4181
2024-05-09T12:18:45.904Z,16.4027
2024-05-09T12:19:48.419Z,16.4016
2024-05-09T12:20:50.949Z,16.3928
2024-05-09T12:21:53.553Z,16.3983
2024-05-09T12:22:56.099Z,16.4119
2024-05-09T12:23:58.679Z,16.4374
2024-05-09T12:25:01.316Z,16.4351
2024-05-09T12:26:03.868Z,16.4306
2024-05-09T12:27:06.457Z,16.4326
2024-05-09T12:28:09.198Z,16.4285
2024-05-09T12:29:11.622Z,16.4211
2024-05-09T12:30:20.729Z,16.3992
2024-05-09T12:31:16.807Z,16.3821
2024-05-09T12:32:19.420Z,16.3842
2024-05-09T12:33:22.144Z,16.3938
2024-05-09T12:34:24.574Z,16.4177
2024-05-09T12:35:27.152Z,16.4059
2024-05-09T12:36:29.702Z,16.4189
2024-05-09T12:37:32.313Z,16.4337
2024-05-09T12:38:34.915Z,16.4415
2024-05-09T12:39:37.538Z,16.4384